sensor_id;sensor_type;location;lat;lon;timestamp;P1;durP1;ratioP1;P2;durP2;ratioP2
7383;SDS011;3733;47.994;8.820;2023-04-03T00:00:59;2.17;;;1.97;;
7383;SDS011;3733;47.994;8.820;2023-04-03T00:03:25;2.63;;;1.90;;
7383;SDS011;3733;47.994;8.820;2023-04-03T00:05:51;2.10;;;2.00;;
7383;SDS011;3733;47.994;8.820;2023-04-03T00:08:17;3.40;;;2.77;;
7383;SDS011;3733;47.994;8.820;2023-04-03T00:10:43;2.10;;;2.00;;
7383;SDS011;3733;47.994;8.820;2023-04-03T00:13:08;2.30;;;2.03;;
7383;SDS011;3733;47.994;8.820;2023-04-03T00:15:35;2.00;;;1.90;;
7383;SDS011;3733;47.994;8.820;2023-04-03T00:18:02;2.37;;;1.73;;
7383;SDS011;3733;47.994;8.820;2023-04-03T00:20:27;2.47;;;1.90;;
7383;SDS011;3733;47.994;8.820;2023-04-03T00:22:53;2.50;;;2.30;;
7383;SDS011;3733;47.994;8.820;2023-04-03T00:25:19;2.13;;;1.97;;
7383;SDS011;3733;47.994;8.820;2023-04-03T00:27:45;2.10;;;1.87;;
7383;SDS011;3733;47.994;8.820;2023-04-03T00:30:12;2.33;;;2.00;;
7383;SDS011;3733;47.994;8.820;2023-04-03T00:32:40;2.60;;;2.40;;
7383;SDS011;3733;47.994;8.820;2023-04-03T00:35:06;3.73;;;3.10;;
7383;SDS011;3733;47.994;8.820;2023-04-03T00:37:32;5.47;;;3.27;;
7383;SDS011;3733;47.994;8.820;2023-04-03T00:39:58;4.10;;;3.70;;
7383;SDS011;3733;47.994;8.820;2023-04-03T00:42:24;4.70;;;3.77;;
7383;SDS011;3733;47.994;8.820;2023-04-03T00:47:21;4.60;;;3.70;;
7383;SDS011;3733;47.994;8.820;2023-04-03T00:49:48;5.60;;;3.80;;
7383;SDS011;3733;47.994;8.820;2023-04-03T00:52:16;4.33;;;3.93;;
7383;SDS011;3733;47.994;8.820;2023-04-03T00:54:45;5.47;;;3.90;;
7383;SDS011;3733;47.994;8.820;2023-04-03T00:57:12;4.70;;;4.17;;
7383;SDS011;3733;47.994;8.820;2023-04-03T00:59:41;6.20;;;4.17;;
7383;SDS011;3733;47.994;8.820;2023-04-03T01:02:11;4.83;;;4.07;;
7383;SDS011;3733;47.994;8.820;2023-04-03T01:04:38;6.27;;;4.33;;
7383;SDS011;3733;47.994;8.820;2023-04-03T01:07:12;8.80;;;5.20;;
7383;SDS011;3733;47.994;8.820;2023-04-03T01:09:41;7.70;;;4.80;;
7383;SDS011;3733;47.994;8.820;2023-04-03T01:12:28;6.03;;;4.90;;
7383;SDS011;3733;47.994;8.820;2023-04-03T01:14:56;6.43;;;4.90;;
7383;SDS011;3733;47.994;8.820;2023-04-03T01:28:06;5.53;;;4.77;;
7383;SDS011;3733;47.994;8.820;2023-04-03T01:33:27;7.03;;;4.93;;
7383;SDS011;3733;47.994;8.820;2023-04-03T01:35:53;5.90;;;5.10;;
7383;SDS011;3733;47.994;8.820;2023-04-03T01:38:19;7.10;;;5.90;;
7383;SDS011;3733;47.994;8.820;2023-04-03T01:40:45;6.57;;;5.17;;
7383;SDS011;3733;47.994;8.820;2023-04-03T01:43:11;7.00;;;5.57;;
7383;SDS011;3733;47.994;8.820;2023-04-03T01:45:36;8.67;;;5.20;;
7383;SDS011;3733;47.994;8.820;2023-04-03T01:48:02;6.23;;;5.47;;
7383;SDS011;3733;47.994;8.820;2023-04-03T01:50:28;9.40;;;5.37;;
7383;SDS011;3733;47.994;8.820;2023-04-03T01:52:54;7.60;;;5.40;;
7383;SDS011;3733;47.994;8.820;2023-04-03T01:55:20;6.60;;;5.03;;
7383;SDS011;3733;47.994;8.820;2023-04-03T01:57:45;6.63;;;5.43;;
7383;SDS011;3733;47.994;8.820;2023-04-03T02:00:11;10.53;;;6.10;;
7383;SDS011;3733;47.994;8.820;2023-04-03T02:02:37;7.93;;;6.20;;
7383;SDS011;3733;47.994;8.820;2023-04-03T02:05:03;6.90;;;5.77;;
7383;SDS011;3733;47.994;8.820;2023-04-03T02:07:29;8.20;;;5.30;;
7383;SDS011;3733;47.994;8.820;2023-04-03T02:09:54;8.80;;;6.60;;
7383;SDS011;3733;47.994;8.820;2023-04-03T02:12:20;8.83;;;5.53;;
7383;SDS011;3733;47.994;8.820;2023-04-03T02:14:46;7.40;;;5.70;;
7383;SDS011;3733;47.994;8.820;2023-04-03T02:17:11;6.20;;;5.30;;
7383;SDS011;3733;47.994;8.820;2023-04-03T02:19:37;6.57;;;5.43;;
7383;SDS011;3733;47.994;8.820;2023-04-03T02:22:03;6.50;;;5.37;;
7383;SDS011;3733;47.994;8.820;2023-04-03T02:24:29;9.00;;;5.60;;
7383;SDS011;3733;47.994;8.820;2023-04-03T02:26:55;8.73;;;6.13;;
7383;SDS011;3733;47.994;8.820;2023-04-03T02:29:21;9.93;;;7.60;;
7383;SDS011;3733;47.994;8.820;2023-04-03T02:31:47;10.07;;;6.47;;
7383;SDS011;3733;47.994;8.820;2023-04-03T02:34:12;11.40;;;6.40;;
7383;SDS011;3733;47.994;8.820;2023-04-03T02:36:38;9.20;;;6.37;;
7383;SDS011;3733;47.994;8.820;2023-04-03T02:39:04;7.87;;;5.50;;
7383;SDS011;3733;47.994;8.820;2023-04-03T02:41:30;10.47;;;6.27;;
7383;SDS011;3733;47.994;8.820;2023-04-03T02:44:02;9.57;;;7.17;;
7383;SDS011;3733;47.994;8.820;2023-04-03T02:46:28;7.40;;;6.03;;
7383;SDS011;3733;47.994;8.820;2023-04-03T02:48:54;8.70;;;6.10;;
7383;SDS011;3733;47.994;8.820;2023-04-03T02:51:20;7.90;;;5.77;;
7383;SDS011;3733;47.994;8.820;2023-04-03T02:53:45;7.30;;;6.07;;
7383;SDS011;3733;47.994;8.820;2023-04-03T02:56:11;7.93;;;6.00;;
7383;SDS011;3733;47.994;8.820;2023-04-03T02:58:36;7.23;;;5.90;;
7383;SDS011;3733;47.994;8.820;2023-04-03T03:01:02;8.80;;;6.57;;
7383;SDS011;3733;47.994;8.820;2023-04-03T03:03:28;9.90;;;6.80;;
7383;SDS011;3733;47.994;8.820;2023-04-03T03:06:03;8.37;;;6.10;;
7383;SDS011;3733;47.994;8.820;2023-04-03T03:08:29;8.90;;;6.93;;
7383;SDS011;3733;47.994;8.820;2023-04-03T03:10:55;12.30;;;8.17;;
7383;SDS011;3733;47.994;8.820;2023-04-03T03:13:21;10.70;;;7.60;;
7383;SDS011;3733;47.994;8.820;2023-04-03T03:15:47;9.20;;;7.50;;
7383;SDS011;3733;47.994;8.820;2023-04-03T03:18:12;13.33;;;8.27;;
7383;SDS011;3733;47.994;8.820;2023-04-03T03:20:38;12.47;;;8.13;;
7383;SDS011;3733;47.994;8.820;2023-04-03T03:23:03;13.07;;;9.60;;
7383;SDS011;3733;47.994;8.820;2023-04-03T03:25:29;11.20;;;7.40;;
7383;SDS011;3733;47.994;8.820;2023-04-03T03:27:54;16.40;;;9.40;;
7383;SDS011;3733;47.994;8.820;2023-04-03T03:30:20;11.73;;;8.50;;
7383;SDS011;3733;47.994;8.820;2023-04-03T03:32:46;11.17;;;8.27;;
7383;SDS011;3733;47.994;8.820;2023-04-03T03:35:11;13.33;;;8.80;;
7383;SDS011;3733;47.994;8.820;2023-04-03T03:37:37;12.07;;;8.30;;
7383;SDS011;3733;47.994;8.820;2023-04-03T03:40:02;14.13;;;9.30;;
7383;SDS011;3733;47.994;8.820;2023-04-03T03:42:28;15.27;;;9.20;;
7383;SDS011;3733;47.994;8.820;2023-04-03T03:44:54;11.40;;;8.30;;
7383;SDS011;3733;47.994;8.820;2023-04-03T03:47:20;15.17;;;9.53;;
7383;SDS011;3733;47.994;8.820;2023-04-03T03:49:45;13.43;;;9.10;;
7383;SDS011;3733;47.994;8.820;2023-04-03T03:52:11;16.03;;;9.33;;
7383;SDS011;3733;47.994;8.820;2023-04-03T03:54:37;14.77;;;8.67;;
7383;SDS011;3733;47.994;8.820;2023-04-03T03:57:03;10.40;;;7.97;;
7383;SDS011;3733;47.994;8.820;2023-04-03T03:59:28;10.90;;;8.33;;
7383;SDS011;3733;47.994;8.820;2023-04-03T04:01:54;14.50;;;8.40;;
7383;SDS011;3733;47.994;8.820;2023-04-03T04:04:20;12.80;;;8.80;;
7383;SDS011;3733;47.994;8.820;2023-04-03T04:06:46;9.50;;;7.40;;
7383;SDS011;3733;47.994;8.820;2023-04-03T04:09:11;12.00;;;8.53;;
7383;SDS011;3733;47.994;8.820;2023-04-03T04:11:37;11.37;;;8.00;;
7383;SDS011;3733;47.994;8.820;2023-04-03T04:14:04;11.23;;;7.80;;
7383;SDS011;3733;47.994;8.820;2023-04-03T04:16:30;9.70;;;7.27;;
7383;SDS011;3733;47.994;8.820;2023-04-03T04:18:56;11.30;;;7.90;;
7383;SDS011;3733;47.994;8.820;2023-04-03T04:21:21;14.23;;;8.57;;
7383;SDS011;3733;47.994;8.820;2023-04-03T04:23:47;9.20;;;7.30;;
7383;SDS011;3733;47.994;8.820;2023-04-03T04:26:12;10.20;;;7.07;;
7383;SDS011;3733;47.994;8.820;2023-04-03T04:28:38;12.20;;;7.20;;
7383;SDS011;3733;47.994;8.820;2023-04-03T04:31:04;11.93;;;7.67;;
7383;SDS011;3733;47.994;8.820;2023-04-03T04:33:29;10.70;;;7.20;;
7383;SDS011;3733;47.994;8.820;2023-04-03T04:35:55;11.90;;;7.70;;
7383;SDS011;3733;47.994;8.820;2023-04-03T04:38:20;11.97;;;8.57;;
7383;SDS011;3733;47.994;8.820;2023-04-03T04:40:47;12.73;;;8.27;;
7383;SDS011;3733;47.994;8.820;2023-04-03T04:43:13;10.30;;;7.20;;
7383;SDS011;3733;47.994;8.820;2023-04-03T04:45:39;10.53;;;7.53;;
7383;SDS011;3733;47.994;8.820;2023-04-03T04:48:05;12.67;;;6.77;;
7383;SDS011;3733;47.994;8.820;2023-04-03T04:50:31;11.00;;;7.40;;
7383;SDS011;3733;47.994;8.820;2023-04-03T04:52:57;9.97;;;7.30;;
7383;SDS011;3733;47.994;8.820;2023-04-03T04:55:22;12.13;;;7.47;;
7383;SDS011;3733;47.994;8.820;2023-04-03T04:57:48;9.20;;;7.23;;
7383;SDS011;3733;47.994;8.820;2023-04-03T05:00:14;12.13;;;7.53;;
7383;SDS011;3733;47.994;8.820;2023-04-03T05:02:40;8.13;;;6.10;;
7383;SDS011;3733;47.994;8.820;2023-04-03T05:05:05;10.30;;;7.30;;
7383;SDS011;3733;47.994;8.820;2023-04-03T05:07:31;9.60;;;7.57;;
7383;SDS011;3733;47.994;8.820;2023-04-03T05:09:57;12.03;;;7.67;;
7383;SDS011;3733;47.994;8.820;2023-04-03T05:12:23;9.87;;;6.87;;
7383;SDS011;3733;47.994;8.820;2023-04-03T05:14:48;8.80;;;6.20;;
7383;SDS011;3733;47.994;8.820;2023-04-03T05:17:14;7.53;;;5.67;;
7383;SDS011;3733;47.994;8.820;2023-04-03T05:19:40;6.97;;;5.77;;
7383;SDS011;3733;47.994;8.820;2023-04-03T05:22:06;11.67;;;5.90;;
7383;SDS011;3733;47.994;8.820;2023-04-03T05:24:31;7.10;;;5.90;;
7383;SDS011;3733;47.994;8.820;2023-04-03T05:26:57;7.77;;;5.80;;
7383;SDS011;3733;47.994;8.820;2023-04-03T05:29:22;8.13;;;6.27;;
7383;SDS011;3733;47.994;8.820;2023-04-03T05:31:51;7.53;;;6.13;;
7383;SDS011;3733;47.994;8.820;2023-04-03T05:34:17;7.63;;;6.30;;
7383;SDS011;3733;47.994;8.820;2023-04-03T05:36:42;9.20;;;6.43;;
7383;SDS011;3733;47.994;8.820;2023-04-03T05:39:08;7.50;;;6.00;;
7383;SDS011;3733;47.994;8.820;2023-04-03T05:41:34;10.23;;;6.80;;
7383;SDS011;3733;47.994;8.820;2023-04-03T05:43:59;8.77;;;6.50;;
7383;SDS011;3733;47.994;8.820;2023-04-03T05:46:25;8.50;;;6.10;;
7383;SDS011;3733;47.994;8.820;2023-04-03T05:48:51;13.43;;;7.13;;
7383;SDS011;3733;47.994;8.820;2023-04-03T05:51:22;11.07;;;6.90;;
7383;SDS011;3733;47.994;8.820;2023-04-03T05:53:52;8.93;;;6.33;;
7383;SDS011;3733;47.994;8.820;2023-04-03T05:56:23;11.23;;;7.50;;
7383;SDS011;3733;47.994;8.820;2023-04-03T05:58:49;6.80;;;5.50;;
7383;SDS011;3733;47.994;8.820;2023-04-03T06:01:15;7.37;;;5.80;;
7383;SDS011;3733;47.994;8.820;2023-04-03T06:03:41;8.73;;;5.90;;
7383;SDS011;3733;47.994;8.820;2023-04-03T06:06:06;9.03;;;6.27;;
7383;SDS011;3733;47.994;8.820;2023-04-03T06:08:33;9.37;;;6.13;;
7383;SDS011;3733;47.994;8.820;2023-04-03T06:10:59;12.50;;;6.33;;
7383;SDS011;3733;47.994;8.820;2023-04-03T06:13:26;7.03;;;5.43;;
7383;SDS011;3733;47.994;8.820;2023-04-03T06:15:52;13.47;;;6.43;;
7383;SDS011;3733;47.994;8.820;2023-04-03T06:18:18;8.20;;;5.63;;
7383;SDS011;3733;47.994;8.820;2023-04-03T06:20:43;7.40;;;5.00;;
7383;SDS011;3733;47.994;8.820;2023-04-03T06:23:09;6.43;;;5.60;;
7383;SDS011;3733;47.994;8.820;2023-04-03T06:25:35;6.70;;;5.33;;
7383;SDS011;3733;47.994;8.820;2023-04-03T06:28:00;6.70;;;5.23;;
7383;SDS011;3733;47.994;8.820;2023-04-03T06:30:26;7.07;;;5.40;;
7383;SDS011;3733;47.994;8.820;2023-04-03T06:32:52;6.43;;;5.50;;
7383;SDS011;3733;47.994;8.820;2023-04-03T06:35:17;5.47;;;4.80;;
7383;SDS011;3733;47.994;8.820;2023-04-03T06:37:43;6.50;;;5.47;;
7383;SDS011;3733;47.994;8.820;2023-04-03T06:40:19;7.77;;;6.17;;
7383;SDS011;3733;47.994;8.820;2023-04-03T06:42:47;10.60;;;7.00;;
7383;SDS011;3733;47.994;8.820;2023-04-03T06:45:13;11.10;;;7.00;;
7383;SDS011;3733;47.994;8.820;2023-04-03T06:47:39;10.93;;;7.30;;
7383;SDS011;3733;47.994;8.820;2023-04-03T06:50:04;9.27;;;6.20;;
7383;SDS011;3733;47.994;8.820;2023-04-03T06:52:31;7.80;;;5.97;;
7383;SDS011;3733;47.994;8.820;2023-04-03T06:54:57;6.97;;;5.30;;
7383;SDS011;3733;47.994;8.820;2023-04-03T06:57:24;7.67;;;5.57;;
7383;SDS011;3733;47.994;8.820;2023-04-03T06:59:50;7.80;;;5.40;;
7383;SDS011;3733;47.994;8.820;2023-04-03T07:02:16;8.70;;;6.20;;
7383;SDS011;3733;47.994;8.820;2023-04-03T07:04:42;6.20;;;5.07;;
7383;SDS011;3733;47.994;8.820;2023-04-03T07:07:07;4.93;;;4.43;;
7383;SDS011;3733;47.994;8.820;2023-04-03T07:09:33;6.20;;;4.40;;
7383;SDS011;3733;47.994;8.820;2023-04-03T07:11:59;5.30;;;4.47;;
7383;SDS011;3733;47.994;8.820;2023-04-03T07:14:25;6.00;;;4.57;;
7383;SDS011;3733;47.994;8.820;2023-04-03T07:16:51;4.20;;;3.60;;
7383;SDS011;3733;47.994;8.820;2023-04-03T07:19:16;4.73;;;4.20;;
7383;SDS011;3733;47.994;8.820;2023-04-03T07:21:43;5.23;;;4.30;;
7383;SDS011;3733;47.994;8.820;2023-04-03T07:24:09;4.30;;;3.73;;
7383;SDS011;3733;47.994;8.820;2023-04-03T07:26:35;6.00;;;3.83;;
7383;SDS011;3733;47.994;8.820;2023-04-03T07:29:01;4.00;;;3.57;;
7383;SDS011;3733;47.994;8.820;2023-04-03T07:31:27;4.57;;;3.73;;
7383;SDS011;3733;47.994;8.820;2023-04-03T07:33:52;4.40;;;3.33;;
7383;SDS011;3733;47.994;8.820;2023-04-03T07:36:19;7.13;;;3.73;;
7383;SDS011;3733;47.994;8.820;2023-04-03T07:38:47;4.17;;;3.83;;
7383;SDS011;3733;47.994;8.820;2023-04-03T07:41:17;6.77;;;3.90;;
7383;SDS011;3733;47.994;8.820;2023-04-03T07:43:43;4.87;;;4.33;;
7383;SDS011;3733;47.994;8.820;2023-04-03T07:46:10;5.03;;;3.57;;
7383;SDS011;3733;47.994;8.820;2023-04-03T07:48:36;4.53;;;3.70;;
7383;SDS011;3733;47.994;8.820;2023-04-03T07:51:02;5.27;;;3.83;;
7383;SDS011;3733;47.994;8.820;2023-04-03T07:53:29;7.20;;;4.10;;
7383;SDS011;3733;47.994;8.820;2023-04-03T07:55:56;7.47;;;4.00;;
7383;SDS011;3733;47.994;8.820;2023-04-03T07:58:22;4.57;;;3.60;;
7383;SDS011;3733;47.994;8.820;2023-04-03T08:00:47;7.60;;;4.33;;
7383;SDS011;3733;47.994;8.820;2023-04-03T08:03:14;6.10;;;4.27;;
7383;SDS011;3733;47.994;8.820;2023-04-03T08:05:44;5.63;;;4.03;;
7383;SDS011;3733;47.994;8.820;2023-04-03T08:08:12;4.57;;;4.17;;
7383;SDS011;3733;47.994;8.820;2023-04-03T08:10:40;4.10;;;3.10;;
7383;SDS011;3733;47.994;8.820;2023-04-03T08:13:07;5.60;;;3.90;;
7383;SDS011;3733;47.994;8.820;2023-04-03T08:15:33;3.77;;;3.20;;
7383;SDS011;3733;47.994;8.820;2023-04-03T08:17:59;4.63;;;3.37;;
7383;SDS011;3733;47.994;8.820;2023-04-03T08:20:25;6.10;;;4.13;;
7383;SDS011;3733;47.994;8.820;2023-04-03T08:22:51;3.93;;;3.53;;
7383;SDS011;3733;47.994;8.820;2023-04-03T08:25:17;5.80;;;3.93;;
7383;SDS011;3733;47.994;8.820;2023-04-03T08:27:43;8.50;;;4.40;;
7383;SDS011;3733;47.994;8.820;2023-04-03T08:30:10;7.23;;;3.83;;
7383;SDS011;3733;47.994;8.820;2023-04-03T08:32:35;5.10;;;3.73;;
7383;SDS011;3733;47.994;8.820;2023-04-03T08:35:02;3.77;;;3.47;;
7383;SDS011;3733;47.994;8.820;2023-04-03T08:37:29;6.70;;;4.40;;
7383;SDS011;3733;47.994;8.820;2023-04-03T08:39:55;5.90;;;5.20;;
7383;SDS011;3733;47.994;8.820;2023-04-03T08:42:32;7.10;;;4.17;;
7383;SDS011;3733;47.994;8.820;2023-04-03T08:45:05;4.80;;;3.87;;
7383;SDS011;3733;47.994;8.820;2023-04-03T08:50:12;4.43;;;3.70;;
7383;SDS011;3733;47.994;8.820;2023-04-03T08:52:42;4.93;;;3.70;;
7383;SDS011;3733;47.994;8.820;2023-04-03T08:57:41;5.60;;;3.97;;
7383;SDS011;3733;47.994;8.820;2023-04-03T09:02:49;6.23;;;4.00;;
7383;SDS011;3733;47.994;8.820;2023-04-03T09:05:20;6.00;;;4.10;;
7383;SDS011;3733;47.994;8.820;2023-04-03T09:10:59;5.67;;;4.47;;
7383;SDS011;3733;47.994;8.820;2023-04-03T09:16:12;4.43;;;3.97;;
7383;SDS011;3733;47.994;8.820;2023-04-03T09:18:45;5.23;;;4.20;;
7383;SDS011;3733;47.994;8.820;2023-04-03T09:21:20;6.33;;;4.20;;
7383;SDS011;3733;47.994;8.820;2023-04-03T09:23:55;4.60;;;4.10;;
7383;SDS011;3733;47.994;8.820;2023-04-03T09:26:31;12.50;;;4.13;;
7383;SDS011;3733;47.994;8.820;2023-04-03T09:29:25;5.23;;;4.10;;
7383;SDS011;3733;47.994;8.820;2023-04-03T09:32:18;7.77;;;4.57;;
7383;SDS011;3733;47.994;8.820;2023-04-03T09:37:44;4.97;;;4.00;;
7383;SDS011;3733;47.994;8.820;2023-04-03T09:42:57;6.37;;;3.77;;
7383;SDS011;3733;47.994;8.820;2023-04-03T09:45:26;7.83;;;4.03;;
7383;SDS011;3733;47.994;8.820;2023-04-03T09:50:38;5.63;;;4.00;;
7383;SDS011;3733;47.994;8.820;2023-04-03T09:53:25;5.63;;;4.77;;
7383;SDS011;3733;47.994;8.820;2023-04-03T09:56:25;9.93;;;4.53;;
7383;SDS011;3733;47.994;8.820;2023-04-03T09:59:06;4.40;;;4.00;;
7383;SDS011;3733;47.994;8.820;2023-04-03T10:01:37;4.80;;;4.20;;
7383;SDS011;3733;47.994;8.820;2023-04-03T10:06:39;4.80;;;4.00;;
7383;SDS011;3733;47.994;8.820;2023-04-03T10:11:57;4.93;;;4.00;;
7383;SDS011;3733;47.994;8.820;2023-04-03T10:14:38;4.40;;;4.00;;
7383;SDS011;3733;47.994;8.820;2023-04-03T10:31:14;8.03;;;4.53;;
7383;SDS011;3733;47.994;8.820;2023-04-03T10:36:29;7.70;;;5.10;;
7383;SDS011;3733;47.994;8.820;2023-04-03T10:41:56;6.40;;;4.30;;
7383;SDS011;3733;47.994;8.820;2023-04-03T10:44:40;5.33;;;4.47;;
7383;SDS011;3733;47.994;8.820;2023-04-03T10:53:04;5.20;;;4.30;;
7383;SDS011;3733;47.994;8.820;2023-04-03T10:58:30;4.60;;;4.13;;
7383;SDS011;3733;47.994;8.820;2023-04-03T11:01:06;5.73;;;4.40;;
7383;SDS011;3733;47.994;8.820;2023-04-03T11:03:40;5.63;;;4.57;;
7383;SDS011;3733;47.994;8.820;2023-04-03T11:06:11;6.20;;;4.63;;
7383;SDS011;3733;47.994;8.820;2023-04-03T11:08:46;5.43;;;4.10;;
7383;SDS011;3733;47.994;8.820;2023-04-03T11:11:35;5.33;;;3.57;;
7383;SDS011;3733;47.994;8.820;2023-04-03T11:14:05;6.90;;;4.30;;
7383;SDS011;3733;47.994;8.820;2023-04-03T11:17:00;7.60;;;5.17;;
7383;SDS011;3733;47.994;8.820;2023-04-03T11:22:36;4.13;;;3.73;;
7383;SDS011;3733;47.994;8.820;2023-04-03T11:27:51;4.87;;;3.83;;
7383;SDS011;3733;47.994;8.820;2023-04-03T11:35:55;5.73;;;3.77;;
7383;SDS011;3733;47.994;8.820;2023-04-03T11:38:33;4.57;;;3.80;;
7383;SDS011;3733;47.994;8.820;2023-04-03T11:41:04;6.60;;;3.77;;
7383;SDS011;3733;47.994;8.820;2023-04-03T11:43:32;5.23;;;4.07;;
7383;SDS011;3733;47.994;8.820;2023-04-03T11:46:01;15.30;;;3.90;;
7383;SDS011;3733;47.994;8.820;2023-04-03T11:53:41;5.20;;;3.77;;
7383;SDS011;3733;47.994;8.820;2023-04-03T11:56:29;4.40;;;3.30;;
7383;SDS011;3733;47.994;8.820;2023-04-03T12:04:11;4.03;;;3.37;;
7383;SDS011;3733;47.994;8.820;2023-04-03T12:06:47;3.73;;;3.33;;
7383;SDS011;3733;47.994;8.820;2023-04-03T12:11:56;7.83;;;3.67;;
7383;SDS011;3733;47.994;8.820;2023-04-03T12:14:24;6.87;;;3.67;;
7383;SDS011;3733;47.994;8.820;2023-04-03T12:16:52;7.50;;;3.00;;
7383;SDS011;3733;47.994;8.820;2023-04-03T12:22:13;3.90;;;3.47;;
7383;SDS011;3733;47.994;8.820;2023-04-03T12:24:41;3.70;;;3.40;;
7383;SDS011;3733;47.994;8.820;2023-04-03T12:29:50;4.83;;;3.40;;
7383;SDS011;3733;47.994;8.820;2023-04-03T12:46:20;4.43;;;4.03;;
7383;SDS011;3733;47.994;8.820;2023-04-03T12:48:52;5.53;;;3.80;;
7383;SDS011;3733;47.994;8.820;2023-04-03T12:51:21;8.50;;;4.27;;
7383;SDS011;3733;47.994;8.820;2023-04-03T12:53:55;6.73;;;3.80;;
7383;SDS011;3733;47.994;8.820;2023-04-03T12:56:29;4.40;;;4.00;;
7383;SDS011;3733;47.994;8.820;2023-04-03T13:01:42;5.57;;;3.60;;
7383;SDS011;3733;47.994;8.820;2023-04-03T13:04:09;4.20;;;3.53;;
7383;SDS011;3733;47.994;8.820;2023-04-03T13:06:40;4.43;;;4.00;;
7383;SDS011;3733;47.994;8.820;2023-04-03T13:09:21;6.13;;;3.53;;
7383;SDS011;3733;47.994;8.820;2023-04-03T13:11:49;4.73;;;3.10;;
7383;SDS011;3733;47.994;8.820;2023-04-03T13:14:23;4.57;;;3.40;;
7383;SDS011;3733;47.994;8.820;2023-04-03T13:16:54;3.97;;;2.83;;
7383;SDS011;3733;47.994;8.820;2023-04-03T13:19:25;5.63;;;3.40;;
7383;SDS011;3733;47.994;8.820;2023-04-03T13:21:58;5.10;;;3.47;;
7383;SDS011;3733;47.994;8.820;2023-04-03T13:24:28;8.67;;;3.90;;
7383;SDS011;3733;47.994;8.820;2023-04-03T13:26:56;8.00;;;4.70;;
7383;SDS011;3733;47.994;8.820;2023-04-03T13:29:27;6.17;;;3.90;;
7383;SDS011;3733;47.994;8.820;2023-04-03T13:31:55;5.40;;;4.73;;
7383;SDS011;3733;47.994;8.820;2023-04-03T13:34:22;6.47;;;4.30;;
7383;SDS011;3733;47.994;8.820;2023-04-03T13:41:44;5.93;;;4.57;;
7383;SDS011;3733;47.994;8.820;2023-04-03T13:44:16;4.27;;;3.73;;
7383;SDS011;3733;47.994;8.820;2023-04-03T13:46:41;8.50;;;3.63;;
7383;SDS011;3733;47.994;8.820;2023-04-03T13:49:17;5.20;;;3.93;;
7383;SDS011;3733;47.994;8.820;2023-04-03T13:51:43;4.93;;;3.77;;
7383;SDS011;3733;47.994;8.820;2023-04-03T13:54:20;5.40;;;4.30;;
7383;SDS011;3733;47.994;8.820;2023-04-03T13:56:52;4.17;;;3.80;;
7383;SDS011;3733;47.994;8.820;2023-04-03T14:01:52;6.57;;;4.30;;
7383;SDS011;3733;47.994;8.820;2023-04-03T14:04:29;7.40;;;3.57;;
7383;SDS011;3733;47.994;8.820;2023-04-03T14:06:56;9.83;;;6.50;;
7383;SDS011;3733;47.994;8.820;2023-04-03T14:09:22;6.03;;;5.40;;
7383;SDS011;3733;47.994;8.820;2023-04-03T14:11:49;10.00;;;5.23;;
7383;SDS011;3733;47.994;8.820;2023-04-03T14:14:22;8.03;;;5.10;;
7383;SDS011;3733;47.994;8.820;2023-04-03T14:16:53;5.07;;;4.23;;
7383;SDS011;3733;47.994;8.820;2023-04-03T14:19:23;6.43;;;4.10;;
7383;SDS011;3733;47.994;8.820;2023-04-03T14:22:00;5.00;;;3.90;;
7383;SDS011;3733;47.994;8.820;2023-04-03T14:24:35;6.10;;;4.63;;
7383;SDS011;3733;47.994;8.820;2023-04-03T14:27:01;5.50;;;4.40;;
7383;SDS011;3733;47.994;8.820;2023-04-03T14:29:27;11.53;;;4.50;;
7383;SDS011;3733;47.994;8.820;2023-04-03T14:31:52;6.10;;;3.80;;
7383;SDS011;3733;47.994;8.820;2023-04-03T14:34:18;4.90;;;3.70;;
7383;SDS011;3733;47.994;8.820;2023-04-03T14:36:44;9.73;;;3.50;;
7383;SDS011;3733;47.994;8.820;2023-04-03T14:39:16;6.77;;;4.37;;
7383;SDS011;3733;47.994;8.820;2023-04-03T14:41:43;4.67;;;3.73;;
7383;SDS011;3733;47.994;8.820;2023-04-03T14:44:10;5.10;;;4.00;;
7383;SDS011;3733;47.994;8.820;2023-04-03T14:46:36;4.43;;;3.70;;
7383;SDS011;3733;47.994;8.820;2023-04-03T14:49:15;4.20;;;3.80;;
7383;SDS011;3733;47.994;8.820;2023-04-03T14:51:42;3.90;;;3.50;;
7383;SDS011;3733;47.994;8.820;2023-04-03T14:54:16;7.40;;;4.00;;
7383;SDS011;3733;47.994;8.820;2023-04-03T14:56:44;9.73;;;4.10;;
7383;SDS011;3733;47.994;8.820;2023-04-03T14:59:13;4.67;;;4.20;;
7383;SDS011;3733;47.994;8.820;2023-04-03T15:01:40;5.23;;;3.90;;
7383;SDS011;3733;47.994;8.820;2023-04-03T15:04:12;10.93;;;3.50;;
7383;SDS011;3733;47.994;8.820;2023-04-03T15:06:40;7.60;;;3.70;;
7383;SDS011;3733;47.994;8.820;2023-04-03T15:09:10;3.90;;;3.37;;
7383;SDS011;3733;47.994;8.820;2023-04-03T15:11:44;7.77;;;4.17;;
7383;SDS011;3733;47.994;8.820;2023-04-03T15:14:10;7.80;;;3.43;;
7383;SDS011;3733;47.994;8.820;2023-04-03T15:16:35;6.50;;;4.00;;
7383;SDS011;3733;47.994;8.820;2023-04-03T15:19:01;4.53;;;4.00;;
7383;SDS011;3733;47.994;8.820;2023-04-03T15:21:27;4.53;;;3.43;;
7383;SDS011;3733;47.994;8.820;2023-04-03T15:23:53;5.23;;;4.23;;
7383;SDS011;3733;47.994;8.820;2023-04-03T15:26:18;6.00;;;3.70;;
7383;SDS011;3733;47.994;8.820;2023-04-03T15:28:45;4.33;;;3.93;;
7383;SDS011;3733;47.994;8.820;2023-04-03T15:31:11;5.17;;;3.60;;
7383;SDS011;3733;47.994;8.820;2023-04-03T15:33:37;5.53;;;3.80;;
7383;SDS011;3733;47.994;8.820;2023-04-03T15:36:03;4.60;;;3.67;;
7383;SDS011;3733;47.994;8.820;2023-04-03T15:38:29;4.70;;;3.57;;
7383;SDS011;3733;47.994;8.820;2023-04-03T15:40:55;3.93;;;3.50;;
7383;SDS011;3733;47.994;8.820;2023-04-03T15:43:21;6.00;;;3.60;;
7383;SDS011;3733;47.994;8.820;2023-04-03T15:45:48;6.60;;;3.90;;
7383;SDS011;3733;47.994;8.820;2023-04-03T15:48:14;4.70;;;3.90;;
7383;SDS011;3733;47.994;8.820;2023-04-03T15:50:40;4.57;;;3.30;;
7383;SDS011;3733;47.994;8.820;2023-04-03T15:53:06;5.33;;;4.10;;
7383;SDS011;3733;47.994;8.820;2023-04-03T15:55:33;3.10;;;2.80;;
7383;SDS011;3733;47.994;8.820;2023-04-03T15:58:00;5.47;;;2.90;;
7383;SDS011;3733;47.994;8.820;2023-04-03T16:00:26;4.20;;;3.70;;
7383;SDS011;3733;47.994;8.820;2023-04-03T16:02:56;9.53;;;3.40;;
7383;SDS011;3733;47.994;8.820;2023-04-03T16:05:26;6.60;;;3.67;;
7383;SDS011;3733;47.994;8.820;2023-04-03T16:07:51;4.63;;;3.67;;
7383;SDS011;3733;47.994;8.820;2023-04-03T16:10:18;3.97;;;3.60;;
7383;SDS011;3733;47.994;8.820;2023-04-03T16:12:44;4.27;;;3.87;;
7383;SDS011;3733;47.994;8.820;2023-04-03T16:15:10;4.50;;;3.83;;
7383;SDS011;3733;47.994;8.820;2023-04-03T16:17:36;3.97;;;3.57;;
7383;SDS011;3733;47.994;8.820;2023-04-03T16:20:03;3.60;;;3.30;;
7383;SDS011;3733;47.994;8.820;2023-04-03T16:22:31;6.70;;;3.57;;
7383;SDS011;3733;47.994;8.820;2023-04-03T16:24:57;4.00;;;3.70;;
7383;SDS011;3733;47.994;8.820;2023-04-03T16:27:23;5.40;;;4.00;;
7383;SDS011;3733;47.994;8.820;2023-04-03T16:29:53;5.47;;;3.20;;
7383;SDS011;3733;47.994;8.820;2023-04-03T16:32:19;4.10;;;3.70;;
7383;SDS011;3733;47.994;8.820;2023-04-03T16:34:46;6.83;;;3.13;;
7383;SDS011;3733;47.994;8.820;2023-04-03T16:37:11;7.67;;;3.53;;
7383;SDS011;3733;47.994;8.820;2023-04-03T16:39:37;8.83;;;4.70;;
7383;SDS011;3733;47.994;8.820;2023-04-03T16:42:03;3.67;;;2.77;;
7383;SDS011;3733;47.994;8.820;2023-04-03T16:44:28;4.40;;;3.33;;
7383;SDS011;3733;47.994;8.820;2023-04-03T16:46:54;3.87;;;3.27;;
7383;SDS011;3733;47.994;8.820;2023-04-03T16:49:20;6.43;;;4.17;;
7383;SDS011;3733;47.994;8.820;2023-04-03T16:51:45;7.30;;;4.73;;
7383;SDS011;3733;47.994;8.820;2023-04-03T16:54:13;4.77;;;4.33;;
7383;SDS011;3733;47.994;8.820;2023-04-03T16:56:38;7.10;;;3.20;;
7383;SDS011;3733;47.994;8.820;2023-04-03T16:59:05;7.47;;;4.00;;
7383;SDS011;3733;47.994;8.820;2023-04-03T17:01:31;3.90;;;3.17;;
7383;SDS011;3733;47.994;8.820;2023-04-03T17:03:57;5.57;;;3.50;;
7383;SDS011;3733;47.994;8.820;2023-04-03T17:06:22;3.50;;;3.30;;
7383;SDS011;3733;47.994;8.820;2023-04-03T17:08:49;4.80;;;3.33;;
7383;SDS011;3733;47.994;8.820;2023-04-03T17:11:16;5.73;;;3.73;;
7383;SDS011;3733;47.994;8.820;2023-04-03T17:13:42;7.50;;;4.43;;
7383;SDS011;3733;47.994;8.820;2023-04-03T17:16:09;6.30;;;4.03;;
7383;SDS011;3733;47.994;8.820;2023-04-03T17:18:38;4.20;;;3.80;;
7383;SDS011;3733;47.994;8.820;2023-04-03T17:21:04;4.83;;;3.97;;
7383;SDS011;3733;47.994;8.820;2023-04-03T17:23:31;4.90;;;3.43;;